createdAt,value
2019-01-11T10:24:21.677Z,37.90
2019-01-11T10:29:17.349Z,38.20
2019-01-11T10:34:14.278Z,38.30
2019-01-11T10:39:10.825Z,38.00
2019-01-11T10:44:07.325Z,37.30
2019-01-11T10:49:03.809Z,36.50
2019-01-11T10:53:59.434Z,35.70
2019-01-11T10:58:55.031Z,35.10
2019-01-11T11:03:50.731Z,35.10
2019-01-11T11:08:46.405Z,33.20
2019-01-11T11:13:42.638Z,32.80
2019-01-11T11:18:38.309Z,33.10
2019-01-11T11:23:33.995Z,32.00
2019-01-11T11:28:29.697Z,31.10
2019-01-11T11:33:27.112Z,31.30
2019-01-11T11:38:22.738Z,31.00
2019-01-11T11:43:18.448Z,30.10
2019-01-11T11:48:14.130Z,29.60
2019-01-11T11:53:10.165Z,28.70
2019-01-11T11:58:06.034Z,29.20
2019-01-11T12:03:01.782Z,27.80
2019-01-11T12:07:57.470Z,27.10
2019-01-11T12:12:53.175Z,27.50
2019-01-11T12:17:48.911Z,26.80
2019-01-11T12:22:44.615Z,27.30
2019-01-11T12:27:40.267Z,27.00
2019-01-11T12:32:35.987Z,26.90
2019-01-11T12:37:31.762Z,26.70
2019-01-11T12:42:27.495Z,26.40
2019-01-11T12:47:23.240Z,26.10
2019-01-11T12:52:18.963Z,25.00
2019-01-11T12:57:14.662Z,25.90
2019-01-11T13:02:10.383Z,25.50
2019-01-11T13:07:07.767Z,25.40
2019-01-11T13:12:05.861Z,24.90
2019-01-11T13:17:07.798Z,23.40
2019-01-11T13:22:05.018Z,23.30
2019-01-11T13:27:00.777Z,22.60
2019-01-11T13:31:56.474Z,22.70
2019-01-11T13:36:54.028Z,21.40
2019-01-11T13:41:49.622Z,21.00
2019-01-11T13:46:45.337Z,21.20
2019-01-11T13:51:41.035Z,23.30
2019-01-11T13:56:36.969Z,24.80
2019-01-11T14:01:34.281Z,23.30
2019-01-11T14:06:42.271Z,23.00
2019-01-11T14:12:00.936Z,22.00
2019-01-11T14:17:05.823Z,25.70
2019-01-11T14:22:01.518Z,27.80
2019-01-11T14:26:57.242Z,29.60
2019-01-11T14:31:52.983Z,30.70
2019-01-11T14:36:48.766Z,30.60
2019-01-11T14:41:44.874Z,31.90
2019-01-11T14:46:40.746Z,32.60
2019-01-11T14:51:36.489Z,32.60
2019-01-11T14:56:32.199Z,32.80
2019-01-11T15:01:28.777Z,33.40
2019-01-11T15:06:24.550Z,34.20
2019-01-11T15:11:20.272Z,34.70
2019-01-11T15:16:15.994Z,34.60
2019-01-11T15:21:11.890Z,35.30
2019-01-11T15:26:08.622Z,35.70
2019-01-11T15:31:04.338Z,36.60
2019-01-11T15:36:01.266Z,37.60
2019-01-11T15:40:57.039Z,38.40
2019-01-11T15:45:54.559Z,39.10
2019-01-11T15:50:55.561Z,39.60
2019-01-11T15:55:53.818Z,40.50
2019-01-11T16:00:49.997Z,41.20
2019-01-11T16:05:48.588Z,42.40
2019-01-11T16:11:15.856Z,44.00
2019-01-11T16:16:37.767Z,45.00
2019-01-11T16:21:33.549Z,45.90
2019-01-11T16:26:29.323Z,47.20
2019-01-11T16:31:25.139Z,47.80
2019-01-11T16:36:20.860Z,47.80
2019-01-11T16:41:16.627Z,48.50
2019-01-11T16:46:12.382Z,49.60
2019-01-11T16:51:08.151Z,50.80
2019-01-11T16:56:03.955Z,51.60
2019-01-11T17:00:59.719Z,52.60
2019-01-11T17:05:55.515Z,53.40
2019-01-11T17:10:51.302Z,53.80
2019-01-11T17:15:47.268Z,54.80
2019-01-11T17:20:43.028Z,55.90
2019-01-11T17:25:38.803Z,58.10
2019-01-11T17:30:34.590Z,60.30
2019-01-11T17:35:30.338Z,62.10
2019-01-11T17:40:26.091Z,63.90
2019-01-11T17:45:21.844Z,63.90
2019-01-11T17:50:19.466Z,63.90
2019-01-11T17:55:15.336Z,64.60
2019-01-11T18:00:14.308Z,66.80
2019-01-11T18:05:10.739Z,68.30
2019-01-11T18:10:08.746Z,68.50
2019-01-11T18:15:05.545Z,69.60
2019-01-11T18:20:02.404Z,70.30
2019-01-11T18:24:59.457Z,70.90
2019-01-11T18:29:55.190Z,71.40
2019-01-11T18:34:50.935Z,72.00
2019-01-11T18:39:46.638Z,72.90
2019-01-11T18:44:42.387Z,73.30
2019-01-11T18:49:39.080Z,73.50
2019-01-11T18:54:34.812Z,74.20
2019-01-11T18:59:30.568Z,74.90
2019-01-11T19:04:26.329Z,75.80
2019-01-11T19:09:22.075Z,76.10
2019-01-11T19:14:17.787Z,76.20
2019-01-11T19:19:13.496Z,76.60
2019-01-11T19:24:09.214Z,77.40
2019-01-11T19:29:05.248Z,78.10
2019-01-11T19:34:01.051Z,78.50
2019-01-11T19:38:56.945Z,79.20
2019-01-11T19:43:53.982Z,79.20
2019-01-11T19:48:49.818Z,78.20
2019-01-11T19:53:45.541Z,77.90
2019-01-11T19:58:41.572Z,78.20
2019-01-11T20:03:37.371Z,78.80
2019-01-11T20:08:33.322Z,79.50
2019-01-11T20:13:31.603Z,80.00
2019-01-11T20:18:27.315Z,79.70
2019-01-11T20:23:23.154Z,79.10
2019-01-11T20:28:18.882Z,79.10
2019-01-11T20:33:15.131Z,78.40
2019-01-11T20:38:10.835Z,79.30
2019-01-11T20:43:06.549Z,79.70
2019-01-11T20:48:02.177Z,79.40
2019-01-11T20:52:58.114Z,78.60
2019-01-11T20:57:53.832Z,78.40
2019-01-11T21:02:49.527Z,78.60
2019-01-11T21:07:45.320Z,78.90
2019-01-11T21:12:41.098Z,78.60
2019-01-11T21:17:36.785Z,78.40
2019-01-11T21:22:32.468Z,78.50
2019-01-11T21:27:28.170Z,78.30
2019-01-11T21:32:23.881Z,78.50
2019-01-11T21:37:19.492Z,78.40
2019-01-11T21:42:19.083Z,78.90
2019-01-11T21:47:12.500Z,79.40
2019-01-11T21:52:08.185Z,79.50
2019-01-11T21:57:03.901Z,79.40
2019-01-11T22:01:59.550Z,78.50
2019-01-11T22:06:55.281Z,78.30
2019-01-11T22:11:50.990Z,79.40
2019-01-11T22:16:46.829Z,79.80
2019-01-11T22:21:42.542Z,80.30
2019-01-11T22:26:39.036Z,80.40
2019-01-11T22:31:34.723Z,80.20
2019-01-11T22:36:30.420Z,79.80
2019-01-11T22:41:26.121Z,80.20
2019-01-11T22:46:21.809Z,80.20
2019-01-11T22:51:17.503Z,80.00
2019-01-11T22:56:15.490Z,80.30
2019-01-11T23:01:40.474Z,80.50
2019-01-11T23:06:59.511Z,79.70
2019-01-11T23:12:39.070Z,80.30
2019-01-11T23:17:44.532Z,79.70
2019-01-11T23:22:40.237Z,79.60
2019-01-11T23:27:35.910Z,79.20
2019-01-11T23:32:31.645Z,78.90
2019-01-11T23:37:27.362Z,78.50
2019-01-11T23:42:23.218Z,79.00
2019-01-11T23:47:18.961Z,78.50
2019-01-11T23:52:14.578Z,77.80
2019-01-11T23:57:10.337Z,79.80
